createdAt,value
2023-03-02T00:00:47.136Z,71.94
2023-03-02T00:03:50.559Z,71.61
2023-03-02T00:06:58.379Z,71.43
2023-03-02T00:10:01.916Z,71.29
2023-03-02T00:13:08.054Z,70.97
2023-03-02T00:16:11.708Z,70.88
2023-03-02T00:19:15.128Z,70.75
2023-03-02T00:22:19.304Z,71.29
2023-03-02T00:25:22.243Z,70.49
2023-03-02T00:28:25.263Z,70.66
2023-03-02T00:31:28.541Z,70.92
2023-03-02T00:34:34.579Z,71.31
2023-03-02T00:37:38.456Z,71.31
2023-03-02T00:40:49.235Z,71.19
2023-03-02T00:43:52.537Z,70.91
2023-03-02T00:46:55.701Z,71.30
2023-03-02T00:49:59.270Z,71.91
2023-03-02T00:53:02.129Z,71.81
2023-03-02T00:56:06.164Z,71.87
2023-03-02T00:59:34.098Z,71.89
2023-03-02T01:02:52.277Z,71.47
2023-03-02T01:05:56.539Z,71.63
2023-03-02T01:08:59.759Z,72.18
2023-03-02T01:12:03.741Z,72.54
2023-03-02T01:15:08.349Z,72.58
2023-03-02T01:18:12.259Z,73.01
2023-03-02T01:21:16.617Z,73.24
2023-03-02T01:24:19.599Z,73.37
2023-03-02T01:27:22.556Z,73.41
2023-03-02T01:30:25.664Z,73.37
2023-03-02T01:33:29.274Z,73.75
2023-03-02T01:36:32.711Z,74.01
2023-03-02T01:39:36.340Z,73.39
2023-03-02T01:42:47.119Z,73.08
2023-03-02T01:45:59.931Z,73.12
2023-03-02T01:49:23.505Z,73.20
2023-03-02T01:52:35.331Z,73.62
2023-03-02T01:55:39.841Z,73.33
2023-03-02T01:58:46.250Z,72.74
2023-03-02T02:01:55.669Z,71.69
2023-03-02T02:04:58.871Z,71.07
2023-03-02T02:08:02.517Z,70.03
2023-03-02T02:11:06.762Z,69.21
2023-03-02T02:14:10.580Z,67.86
2023-03-02T02:17:17.055Z,67.25
2023-03-02T02:20:20.748Z,66.24
2023-03-02T02:23:27.667Z,66.00
2023-03-02T02:26:45.466Z,64.94
2023-03-02T02:29:51.760Z,63.19
2023-03-02T02:32:56.262Z,63.17
2023-03-02T02:36:06.490Z,61.47
2023-03-02T02:39:20.924Z,60.41
2023-03-02T02:42:29.602Z,59.59
2023-03-02T02:45:32.738Z,58.83
2023-03-02T02:48:35.815Z,58.71
2023-03-02T02:51:39.065Z,58.43
2023-03-02T02:54:44.721Z,57.57
2023-03-02T02:57:49.230Z,57.23
2023-03-02T03:00:54.939Z,56.69
2023-03-02T03:04:02.706Z,55.98
2023-03-02T03:07:06.799Z,56.59
2023-03-02T03:10:28.038Z,56.02
2023-03-02T03:13:31.317Z,56.24
2023-03-02T03:16:36.116Z,55.57
2023-03-02T03:19:45.601Z,55.21
2023-03-02T03:22:49.169Z,52.30
2023-03-02T03:25:52.763Z,50.75
2023-03-02T03:28:57.381Z,50.88
2023-03-02T03:32:02.299Z,52.01
2023-03-02T03:35:08.905Z,49.61
2023-03-02T03:38:12.620Z,51.61
2023-03-02T03:41:16.717Z,50.10
2023-03-02T03:44:20.142Z,49.27
2023-03-02T03:47:24.138Z,50.17
2023-03-02T03:50:28.563Z,49.38
2023-03-02T03:53:32.256Z,48.94
2023-03-02T03:56:39.870Z,48.97
2023-03-02T03:59:42.950Z,48.08
2023-03-02T04:02:46.007Z,47.30
2023-03-02T04:05:50.253Z,47.43
2023-03-02T04:08:54.125Z,47.61
2023-03-02T04:11:57.797Z,47.97
2023-03-02T04:15:02.614Z,47.55
2023-03-02T04:18:05.980Z,47.59
2023-03-02T04:21:10.933Z,46.64
2023-03-02T04:24:15.854Z,47.00
2023-03-02T04:27:20.024Z,47.53
2023-03-02T04:30:25.484Z,48.53
2023-03-02T04:33:29.221Z,48.70
2023-03-02T04:36:35.424Z,48.79
2023-03-02T04:39:40.823Z,48.37
2023-03-02T04:42:44.829Z,48.20
2023-03-02T04:45:48.352Z,48.59
2023-03-02T04:48:52.945Z,49.40
2023-03-02T04:52:01.742Z,49.94
2023-03-02T04:55:05.155Z,49.60
2023-03-02T04:58:08.860Z,49.88
2023-03-02T05:01:12.333Z,51.70
2023-03-02T05:04:16.450Z,51.78
2023-03-02T05:07:19.865Z,52.18
2023-03-02T05:10:23.764Z,51.69
2023-03-02T05:13:27.938Z,52.43
2023-03-02T05:16:34.160Z,52.58
2023-03-02T05:19:37.619Z,52.30
2023-03-02T05:22:40.693Z,52.82
2023-03-02T05:25:43.709Z,53.35
2023-03-02T05:28:47.329Z,53.58
2023-03-02T05:31:51.352Z,53.02
2023-03-02T05:34:54.516Z,53.18
2023-03-02T05:37:57.938Z,53.51
2023-03-02T05:41:01.271Z,54.19
2023-03-02T05:44:06.047Z,53.60
2023-03-02T05:47:09.237Z,52.70
2023-03-02T05:50:12.310Z,52.54
2023-03-02T05:53:16.783Z,51.24
2023-03-02T05:56:21.409Z,50.97
2023-03-02T05:59:24.720Z,49.80
2023-03-02T06:02:27.672Z,49.55
2023-03-02T06:05:30.573Z,50.32
2023-03-02T06:08:33.934Z,50.78
2023-03-02T06:11:36.827Z,50.01
2023-03-02T06:14:40.266Z,50.57
2023-03-02T06:17:43.303Z,48.34
2023-03-02T06:20:46.623Z,49.13
2023-03-02T06:23:49.561Z,47.90
2023-03-02T06:26:55.883Z,47.74
2023-03-02T06:29:58.789Z,48.60
2023-03-02T06:33:02.071Z,48.28
2023-03-02T06:36:05.624Z,45.83
2023-03-02T06:39:15.820Z,45.06
2023-03-02T06:42:26.300Z,44.43
2023-03-02T06:45:30.352Z,44.11
2023-03-02T06:48:34.306Z,40.88
2023-03-02T06:51:38.109Z,41.06
2023-03-02T06:54:41.764Z,38.59
2023-03-02T06:57:45.111Z,38.80
2023-03-02T07:00:51.052Z,36.30
2023-03-02T07:03:54.714Z,36.50
2023-03-02T07:07:01.241Z,36.23
2023-03-02T07:10:07.106Z,37.49
2023-03-02T07:13:14.146Z,36.34
2023-03-02T07:16:17.836Z,38.44
2023-03-02T07:19:21.515Z,36.12
2023-03-02T07:22:25.036Z,37.88
2023-03-02T07:25:32.902Z,35.68
2023-03-02T07:28:42.453Z,36.67
2023-03-02T07:31:45.568Z,37.06
2023-03-02T07:34:49.277Z,37.63
2023-03-02T07:38:08.678Z,37.68
2023-03-02T07:41:12.950Z,38.22
2023-03-02T07:44:17.019Z,38.74
2023-03-02T07:47:20.662Z,38.96
2023-03-02T07:50:25.210Z,38.49
2023-03-02T07:53:31.048Z,38.82
2023-03-02T07:56:37.473Z,38.66
2023-03-02T07:59:41.003Z,39.32
2023-03-02T08:02:44.624Z,38.54
2023-03-02T08:05:48.085Z,39.94
2023-03-02T08:08:55.322Z,39.80
2023-03-02T08:11:58.836Z,40.86
2023-03-02T08:15:05.273Z,39.77
2023-03-02T08:18:09.646Z,40.82
2023-03-02T08:21:34.200Z,40.16
2023-03-02T08:24:43.148Z,39.69
2023-03-02T08:27:49.000Z,39.69
2023-03-02T08:31:01.621Z,39.60
2023-03-02T08:34:04.832Z,39.55
2023-03-02T08:37:14.104Z,39.24
2023-03-02T08:40:17.712Z,39.45
2023-03-02T08:43:26.111Z,37.44
2023-03-02T08:46:31.002Z,39.04
2023-03-02T08:49:34.391Z,39.52
2023-03-02T08:52:37.762Z,40.57
2023-03-02T08:55:40.894Z,39.23
2023-03-02T08:58:44.644Z,40.41
2023-03-02T09:01:48.436Z,40.24
2023-03-02T09:04:51.982Z,40.94
2023-03-02T09:07:55.591Z,39.30
2023-03-02T09:11:00.866Z,40.11
2023-03-02T09:14:04.712Z,40.84
2023-03-02T09:17:08.282Z,40.50
2023-03-02T09:20:12.222Z,40.30
2023-03-02T09:23:16.031Z,38.91
2023-03-02T09:26:19.563Z,38.96
2023-03-02T09:29:26.394Z,39.22
2023-03-02T09:32:29.805Z,38.06
2023-03-02T09:35:40.210Z,39.50
2023-03-02T09:38:43.515Z,38.82
2023-03-02T09:42:07.654Z,39.17
2023-03-02T09:45:34.865Z,38.72
2023-03-02T09:49:28.673Z,38.83
2023-03-02T09:52:52.745Z,40.09
2023-03-02T09:56:02.712Z,38.35
2023-03-02T09:59:18.148Z,40.44
2023-03-02T10:02:48.060Z,41.17
2023-03-02T10:05:54.292Z,37.65
2023-03-02T10:08:57.779Z,37.89
2023-03-02T10:12:13.394Z,39.59
2023-03-02T10:15:30.034Z,39.43
2023-03-02T10:18:33.330Z,38.49
2023-03-02T10:22:13.576Z,39.28
2023-03-02T10:25:22.888Z,39.48
2023-03-02T10:28:33.063Z,39.84
2023-03-02T10:31:43.781Z,42.63
2023-03-02T10:34:50.239Z,43.38
2023-03-02T10:38:12.608Z,42.96
2023-03-02T10:41:23.511Z,43.51
2023-03-02T10:44:52.576Z,42.81
2023-03-02T10:48:11.437Z,40.66
2023-03-02T10:51:29.912Z,41.13
2023-03-02T10:54:34.917Z,41.00
2023-03-02T10:57:43.613Z,42.76
2023-03-02T11:00:58.514Z,42.38
2023-03-02T11:04:02.683Z,43.29
2023-03-02T11:07:32.257Z,42.25
2023-03-02T11:10:51.853Z,40.91
2023-03-02T11:13:57.067Z,43.72
2023-03-02T11:17:02.421Z,42.44
2023-03-02T11:20:16.351Z,42.44
2023-03-02T11:23:42.386Z,42.36
2023-03-02T11:26:51.229Z,42.86
2023-03-02T11:30:16.230Z,42.63
2023-03-02T11:33:30.187Z,41.68
2023-03-02T11:36:55.212Z,40.96
2023-03-02T11:40:05.729Z,42.91
2023-03-02T11:43:12.928Z,41.61
2023-03-02T11:46:27.289Z,42.14
2023-03-02T11:49:54.941Z,42.28
2023-03-02T11:53:18.306Z,41.74
2023-03-02T11:56:22.935Z,42.10
2023-03-02T11:59:28.930Z,43.17
2023-03-02T12:02:32.101Z,43.03
2023-03-02T12:05:38.091Z,42.87
2023-03-02T12:08:45.135Z,43.05
2023-03-02T12:11:56.073Z,43.17
2023-03-02T12:15:01.330Z,42.65
2023-03-02T12:18:23.816Z,44.20
2023-03-02T12:21:27.568Z,42.81
2023-03-02T12:24:33.514Z,42.94
2023-03-02T12:27:41.921Z,44.34
2023-03-02T12:30:56.896Z,44.44
2023-03-02T12:34:00.810Z,44.25
2023-03-02T12:37:38.224Z,44.90
2023-03-02T12:41:00.450Z,45.13
2023-03-02T12:44:12.636Z,43.77
2023-03-02T12:47:27.992Z,45.19
2023-03-02T12:50:37.934Z,44.87
2023-03-02T12:53:41.764Z,45.09
2023-03-02T12:56:45.967Z,45.49
2023-03-02T13:00:01.446Z,47.10
2023-03-02T13:03:10.083Z,46.84
2023-03-02T13:06:18.354Z,47.48
2023-03-02T13:09:23.978Z,47.93
2023-03-02T13:12:29.402Z,48.65
2023-03-02T13:15:54.640Z,49.15
2023-03-02T13:19:00.482Z,48.86
2023-03-02T13:25:28.301Z,50.11
2023-03-02T13:28:36.978Z,49.72
2023-03-02T13:31:40.958Z,49.14
2023-03-02T13:34:50.278Z,50.20
2023-03-02T13:38:14.154Z,50.92
2023-03-02T13:41:59.787Z,51.54
2023-03-02T13:45:33.046Z,52.66
2023-03-02T13:48:36.447Z,50.12
2023-03-02T13:51:46.288Z,50.56
2023-03-02T13:54:51.724Z,50.52
2023-03-02T13:57:56.414Z,51.16
2023-03-02T14:01:07.926Z,50.64
2023-03-02T14:04:18.238Z,51.04
2023-03-02T14:07:21.726Z,51.18
2023-03-02T14:10:26.843Z,51.28
2023-03-02T14:13:45.595Z,52.09
2023-03-02T14:16:48.789Z,51.72
2023-03-02T14:19:53.062Z,52.12
2023-03-02T14:22:56.157Z,52.66
2023-03-02T14:25:59.499Z,52.50
2023-03-02T14:29:21.297Z,52.90
2023-03-02T14:32:24.781Z,52.83
2023-03-02T14:35:27.911Z,52.62
2023-03-02T14:38:31.334Z,52.94
2023-03-02T14:41:52.495Z,53.57
2023-03-02T14:44:56.341Z,53.56
2023-03-02T14:48:00.608Z,53.48
2023-03-02T14:51:04.248Z,53.72
2023-03-02T14:54:12.682Z,53.81
2023-03-02T14:57:22.252Z,54.32
2023-03-02T15:00:26.157Z,54.88
2023-03-02T15:03:29.654Z,54.91
2023-03-02T15:06:43.608Z,55.18
2023-03-02T15:09:47.271Z,55.84
2023-03-02T15:12:51.128Z,55.67
2023-03-02T15:15:54.453Z,55.69
2023-03-02T15:18:58.927Z,56.63
2023-03-02T15:22:02.417Z,56.78
2023-03-02T15:25:06.237Z,56.47
2023-03-02T15:28:09.826Z,57.17
2023-03-02T15:31:16.036Z,57.13
2023-03-02T15:34:19.396Z,57.26
2023-03-02T15:37:22.647Z,57.96
2023-03-02T15:40:26.588Z,58.09
2023-03-02T15:43:29.552Z,58.71
2023-03-02T15:46:32.961Z,59.04
2023-03-02T15:49:36.239Z,59.23
2023-03-02T15:52:39.255Z,58.95
2023-03-02T15:55:42.432Z,59.35
2023-03-02T15:58:47.847Z,59.96
2023-03-02T16:01:51.918Z,59.96
2023-03-02T16:04:55.172Z,60.07
2023-03-02T16:07:58.205Z,60.72
2023-03-02T16:11:04.391Z,60.84
2023-03-02T16:14:07.546Z,60.46
2023-03-02T16:17:10.347Z,61.11
2023-03-02T16:20:13.439Z,60.80
2023-03-02T16:23:16.366Z,61.00
2023-03-02T16:26:21.016Z,61.49
2023-03-02T16:29:24.434Z,61.42
2023-03-02T16:32:28.388Z,62.06
2023-03-02T16:35:33.246Z,62.52
2023-03-02T16:38:37.367Z,62.67
2023-03-02T16:41:42.971Z,62.53
2023-03-02T16:44:46.440Z,62.85
2023-03-02T16:47:50.017Z,62.84
2023-03-02T16:50:58.207Z,63.27
2023-03-02T16:54:02.406Z,63.29
2023-03-02T16:57:05.651Z,63.38
2023-03-02T17:00:11.792Z,63.08
2023-03-02T17:03:15.090Z,63.91
2023-03-02T17:06:22.327Z,63.62
2023-03-02T17:09:25.450Z,63.17
2023-03-02T17:12:29.037Z,63.38
2023-03-02T17:15:32.845Z,63.78
2023-03-02T17:18:35.902Z,63.78
2023-03-02T17:21:39.189Z,64.17
2023-03-02T17:24:42.379Z,63.93
2023-03-02T17:27:45.667Z,64.37
2023-03-02T17:30:49.909Z,64.30
2023-03-02T17:33:53.352Z,63.99
2023-03-02T17:36:56.550Z,64.89
2023-03-02T17:39:59.918Z,64.93
2023-03-02T17:43:03.186Z,64.38
2023-03-02T17:46:20.520Z,64.76
2023-03-02T17:49:24.129Z,64.99
2023-03-02T17:52:27.631Z,64.94
2023-03-02T17:55:30.993Z,65.50
2023-03-02T17:58:44.349Z,64.83
2023-03-02T18:01:48.344Z,66.19
2023-03-02T18:04:51.494Z,65.34
2023-03-02T18:07:54.887Z,66.91
2023-03-02T18:11:02.725Z,66.69
2023-03-02T18:14:06.097Z,67.13
2023-03-02T18:17:10.337Z,67.45
2023-03-02T18:20:16.295Z,67.54
2023-03-02T18:23:19.913Z,67.91
2023-03-02T18:26:23.430Z,68.46
2023-03-02T18:29:26.869Z,68.36
2023-03-02T18:32:29.864Z,68.50
2023-03-02T18:35:33.831Z,68.46
2023-03-02T18:38:37.998Z,68.85
2023-03-02T18:41:41.628Z,69.37
2023-03-02T18:44:44.771Z,69.35
2023-03-02T18:47:48.002Z,69.58
2023-03-02T18:50:51.580Z,68.66
2023-03-02T18:53:56.366Z,68.39
2023-03-02T18:57:01.758Z,68.48
2023-03-02T19:00:08.386Z,69.47
2023-03-02T19:03:15.140Z,69.13
2023-03-02T19:06:18.494Z,69.75
2023-03-02T19:09:23.687Z,69.71
2023-03-02T19:12:27.404Z,70.28
2023-03-02T19:15:33.230Z,69.71
2023-03-02T19:18:38.003Z,69.83
2023-03-02T19:21:41.384Z,69.80
2023-03-02T19:24:45.931Z,69.75
2023-03-02T19:27:49.400Z,69.47
2023-03-02T19:30:52.844Z,69.81
2023-03-02T19:33:56.798Z,70.17
2023-03-02T19:37:00.521Z,69.82
2023-03-02T19:40:04.158Z,70.04
2023-03-02T19:43:07.480Z,69.07
2023-03-02T19:46:14.093Z,69.36
2023-03-02T19:49:17.224Z,69.78
2023-03-02T19:52:20.070Z,71.16
2023-03-02T19:55:24.414Z,71.17
2023-03-02T19:58:28.586Z,71.53
2023-03-02T20:01:32.166Z,71.63
2023-03-02T20:04:35.679Z,71.47
2023-03-02T20:07:41.563Z,71.81
2023-03-02T20:10:46.694Z,71.80
2023-03-02T20:13:50.617Z,72.59
2023-03-02T20:16:53.784Z,71.67
2023-03-02T20:19:57.392Z,73.27
2023-03-02T20:23:00.896Z,72.36
2023-03-02T20:26:05.049Z,71.99
2023-03-02T20:29:09.138Z,72.56
2023-03-02T20:32:13.630Z,72.96
2023-03-02T20:35:16.754Z,72.95
2023-03-02T20:38:29.158Z,73.16
2023-03-02T20:41:33.246Z,73.30
2023-03-02T20:44:36.584Z,72.94
2023-03-02T20:47:40.723Z,72.70
2023-03-02T20:50:44.320Z,72.93
2023-03-02T20:53:47.866Z,73.07
2023-03-02T20:56:51.850Z,73.82
2023-03-02T20:59:54.935Z,73.68
2023-03-02T21:02:58.314Z,73.47
2023-03-02T21:06:01.451Z,73.32
2023-03-02T21:09:08.085Z,72.68
2023-03-02T21:12:11.959Z,72.87
2023-03-02T21:15:16.913Z,73.73
2023-03-02T21:18:20.076Z,73.53
2023-03-02T21:21:39.448Z,73.00
2023-03-02T21:24:44.444Z,72.63
2023-03-02T21:27:48.335Z,72.38
2023-03-02T21:30:52.172Z,72.46
2023-03-02T21:33:55.328Z,72.51
2023-03-02T21:36:59.844Z,72.78
2023-03-02T21:40:03.162Z,72.42
2023-03-02T21:43:07.694Z,72.61
2023-03-02T21:46:17.004Z,72.63
2023-03-02T21:49:22.456Z,72.26
2023-03-02T21:52:27.379Z,72.67
2023-03-02T21:55:31.019Z,72.47
2023-03-02T21:58:34.350Z,72.68
2023-03-02T22:01:37.656Z,72.94
2023-03-02T22:04:42.112Z,73.75
2023-03-02T22:07:45.445Z,72.79
2023-03-02T22:10:51.608Z,73.19
2023-03-02T22:13:57.809Z,73.17
2023-03-02T22:17:01.185Z,74.03
2023-03-02T22:20:16.731Z,74.66
2023-03-02T22:23:23.198Z,74.36
2023-03-02T22:26:26.975Z,74.86
2023-03-02T22:29:33.754Z,74.97
2023-03-02T22:32:38.726Z,75.02
2023-03-02T22:35:42.759Z,74.95
2023-03-02T22:38:48.734Z,74.70
2023-03-02T22:41:58.725Z,74.44
2023-03-02T22:45:17.089Z,72.94
2023-03-02T22:48:22.827Z,73.28
2023-03-02T22:51:33.922Z,73.33
2023-03-02T22:54:37.879Z,73.78
2023-03-02T22:57:43.220Z,73.61
2023-03-02T23:00:49.214Z,72.98
2023-03-02T23:04:03.283Z,73.42
2023-03-02T23:07:24.462Z,73.58
2023-03-02T23:10:28.001Z,73.39
2023-03-02T23:13:39.901Z,73.14
2023-03-02T23:16:42.859Z,72.55
2023-03-02T23:19:47.233Z,72.66
2023-03-02T23:22:50.656Z,72.91
2023-03-02T23:25:53.988Z,72.80
2023-03-02T23:28:58.188Z,72.75
2023-03-02T23:32:02.380Z,73.25
2023-03-02T23:35:05.901Z,72.94
2023-03-02T23:38:09.484Z,72.53
2023-03-02T23:41:12.917Z,72.62
2023-03-02T23:44:16.733Z,72.85
2023-03-02T23:47:19.980Z,72.32
2023-03-02T23:50:23.314Z,74.03
2023-03-02T23:53:26.796Z,73.38
2023-03-02T23:56:29.606Z,74.16
2023-03-02T23:59:33.048Z,73.43
